CST,Max TemperatureF,Mean TemperatureF,Min TemperatureF,Max Dew PointF,MeanDew PointF,Min DewpointF,Max Humidity, Mean Humidity, Min Humidity, Max Sea Level PressureIn, Mean Sea Level PressureIn, Min Sea Level PressureIn, Max VisibilityMiles, Mean VisibilityMiles, Min VisibilityMiles, Max Wind SpeedMPH, Mean Wind SpeedMPH, Max Gust SpeedMPH,PrecipitationIn, CloudCover, Events, WindDirDegrees
2014-2-1,60,48,37,52,43,30,94,83,67,30.00,29.90,29.85,10,7,0,28,11,33,0.25,8,,206
2014-2-2,37,30,24,34,24,16,87,75,64,30.27,30.17,30.02,10,7,0,22,15,31,0.29,8,,360
2014-2-3,26,18,10,14,8,1,68,59,47,30.39,30.31,30.24,10,10,2,13,9,,0.02,0,,21
2014-2-4,32,26,21,27,20,12,86,74,63,30.24,30.05,29.89,10,6,2,31,9,36,0.35,6,,35
2014-2-5,32,26,19,25,16,7,75,64,54,30.54,30.31,29.97,10,9,3,0,0,,0.00,7,,-1
2014-2-6,21,18,15,9,6,1,68,60,53,30.61,30.54,30.48,10,10,4,0,0,,0.00,5,,-1
2014-2-7,19,16,14,9,2,-2,68,52,45,30.53,30.44,30.33,10,10,2,15,9,,0.00,7,,45
2014-2-8,30,24,17,23,15,9,80,68,63,30.32,30.23,30.13,10,8,2,8,5,,0.00,8,,36
2014-2-9,35,32,28,25,23,18,86,70,56,30.29,30.21,30.13,10,7,2,16,5,,0.00,8,,30
2014-2-10,28,22,17,18,11,1,69,57,49,30.41,30.36,30.27,10,9,1,20,12,20,0.00,3,,39
2014-2-11,24,18,12,9,3,-4,58,49,40,30.50,30.40,30.31,10,9,1,17,12,21,0.00,0,,30
2014-2-12,35,25,15,18,9,1,69,53,44,30.31,30.13,30.00,10,10,8,12,7,,0.00,0,,17
2014-2-13,46,32,19,30,20,10,74,61,39,30.03,29.92,29.81,10,10,7,14,6,,0.00,0,,195
2014-2-14,46,38,30,39,27,18,87,72,60,30.10,29.83,29.64,10,10,5,29,10,36,0.23,4,,241
2014-2-15,37,30,23,27,18,12,80,62,51,30.24,30.12,30.03,10,10,10,20,10,,0.00,0,,169
2014-2-16,46,36,26,34,27,19,80,69,53,30.20,30.14,30.03,10,8,4,13,6,,0.00,0,,41
2014-2-17,64,48,33,48,31,25,75,63,39,30.15,30.02,29.87,10,8,3,29,9,38,0.00,4,,324
2014-2-18,62,45,28,54,38,21,94,71,44,30.14,30.00,29.83,10,9,5,17,6,22,0.00,0,,191
2014-2-19,60,51,42,54,42,32,94,67,42,30.08,29.95,29.77,10,8,0,12,8,,0.00,3,,57
2014-2-20,73,58,39,63,50,27,94,73,42,29.91,29.70,29.52,10,10,7,34,19,47,0.00,5,,210
2014-2-21,57,45,33,34,28,14,75,53,25,30.09,30.02,29.94,10,10,10,20,11,22,0.00,0,,213
2014-2-22,64,48,33,41,35,27,81,60,34,30.08,30.00,29.90,10,10,9,20,11,25,0.00,0,,179
2014-2-23,50,42,33,37,33,19,87,71,56,30.29,30.09,29.92,10,10,10,24,11,30,0.00,2,,32
2014-2-24,44,36,28,28,20,16,69,53,36,30.37,30.27,30.18,10,10,7,20,12,23,0.00,2,,39
2014-2-25,46,38,30,27,22,16,70,55,37,30.24,30.19,30.14,10,10,5,17,10,23,0.00,3,,38
2014-2-26,35,29,23,16,7,1,55,42,24,30.32,30.20,30.08,10,10,8,21,13,26,0.00,2,,328
2014-2-27,44,32,21,21,14,7,69,47,29,30.14,30.07,30.03,10,10,2,15,7,17,0.00,0,,129
2014-2-28,48,36,24,37,24,-2,81,61,29,30.09,30.03,29.93,10,10,9,14,8,18,0.01,3,,105